Overview Statistics Trail Chart Weather Telemetry Raw packets
 

This is the latest recevied weather packets stored in our database for station/object WX6HNX-12. If no packets are shown the sender has not sent any weather packets the latest 10 day(s).

<< 13 14 15 16 17 18 19 >>
Time Temp. Humidity Pressure Rain* Wind** Luminosity Snow
1777708680 18.89° C 52% 1011.3 hPa 0 mm - - -
1777708380 18.33° C 53% 1011.3 hPa 0 mm - - -
1777708080 17.78° C 55% 1011.3 hPa 0 mm - - -
1777707621 17.78° C 54% 1011.3 hPa 0 mm - - -
1777707321 17.78° C 54% 1011.4 hPa 0 mm - - -
1777707021 17.78° C 55% 1011.3 hPa 0 mm - - -
1777706721 17.78° C 53% 1011.3 hPa 0 mm - - -
1777706422 17.78° C 53% 1011.3 hPa 0 mm - - -
1777706121 18.33° C 52% 1011.3 hPa 0 mm - - -
1777705822 18.89° C 51% 1011.3 hPa 0 mm - - -
1777705522 18.89° C 54% 1011.3 hPa 0 mm - - -
1777705230 18.33° C 56% 1011.2 hPa 0 mm - - -
1777704924 17.78° C 54% 1011.2 hPa 0 mm - - -
1777704621 18.33° C 52% 1011.2 hPa 0 mm - - -
1777704321 18.33° C 51% 1011.3 hPa 0 mm - - -
1777704021 18.33° C 50% 1011.3 hPa 0 mm - - -
1777703421 18.89° C 47% 1011.2 hPa 0 mm - - -
1777703122 19.44° C 44% 1011.2 hPa 0 mm - - -
1777702821 20° C 43% 1011.2 hPa 0 mm - - -
1777702522 20.56° C 42% 1011.2 hPa 0 mm - - -
1777702221 21.11° C 43% 1011.2 hPa 0 mm - - -
1777701922 21.11° C 43% 1011.2 hPa 0 mm - - -
1777701621 21.11° C 42% 1011.2 hPa 0 mm - - -
1777701322 21.11° C 41% 1011.2 hPa 0 mm - - -
1777701022 20.56° C 42% 1011.2 hPa 0 mm - - -

* Rain latest hour (hover to see other rain measurements)
** Current wind speed in m/s (hover to see current wind gust speed)